Terminal Aerodrome Forecast
Issued by NWS Charleston, WV

Home | Current Version | Previous Version | Text Only | Print | Product List | Glossary On
Versions: 1 2 3 4 5 6 7 8 9 10 11 12 13 14 15 16 17 18 19 20 21 22 23 24 25
000
FTUS41 KRLX 311700
TAFPKB
TAF
KPKB 311722Z 3118/0118 22005KT P6SM FEW030
     FM312300 VRB03KT P6SM SCT150
     FM010300 VRB03KT P6SM BKN090
     FM010900 00000KT 5SM -SN BKN030
     FM011200 00000KT 2SM -SN OVC015
     FM011500 17004KT 3SM -RASN OVC020
     FM011700 12005KT 5SM -RA OVC025=

USA.gov is the U.S. government's official web portal to all federal, state and local government web resources and services.